Pinchbeck, United Kingdom
Current Conditions -  °F | °C
As of 5:50 PM on Saturday 22 Nov 2014 (Local Time) from EGXT Reporting Station
Haze Haze  
Wind Chill: 55°   Ceiling: 5000
Heat Index: 55°   Visibility: 3mi
Dew Point: 55°   Wind: 7mph
Humidity: 100%   Direction: 190°S
Pressure: 29.91"   Gusts: NA
Location:  52.81°N, 0.16°W
Report Text: EGXT 221750Z AUTO 19006KT 5000 BR BKN050/// 13/13 Q1013
Loading
Personal Weather Stations






























Interactive Weather Map New forecast layout! Learn more

10-Day Weather Forecast

Advertisements
Track Severe Weather on mobile